sensor_id;sensor_type;location;lat;lon;timestamp;P1;durP1;ratioP1;P2;durP2;ratioP2
27632;SDS011;15046;50.930;13.334;2023-05-18T00:02:06;7.30;;;2.40;;
27632;SDS011;15046;50.930;13.334;2023-05-18T00:04:32;11.63;;;3.28;;
27632;SDS011;15046;50.930;13.334;2023-05-18T00:06:59;10.85;;;2.60;;
27632;SDS011;15046;50.930;13.334;2023-05-18T00:09:33;13.73;;;3.42;;
27632;SDS011;15046;50.930;13.334;2023-05-18T00:12:00;8.90;;;2.75;;
27632;SDS011;15046;50.930;13.334;2023-05-18T00:14:27;12.55;;;3.28;;
27632;SDS011;15046;50.930;13.334;2023-05-18T00:16:53;9.95;;;3.33;;
27632;SDS011;15046;50.930;13.334;2023-05-18T00:19:20;11.63;;;3.70;;
27632;SDS011;15046;50.930;13.334;2023-05-18T00:21:48;7.75;;;2.55;;
27632;SDS011;15046;50.930;13.334;2023-05-18T00:24:15;9.88;;;3.38;;
27632;SDS011;15046;50.930;13.334;2023-05-18T00:26:42;9.90;;;3.05;;
27632;SDS011;15046;50.930;13.334;2023-05-18T00:29:08;8.60;;;3.08;;
27632;SDS011;15046;50.930;13.334;2023-05-18T00:31:34;9.73;;;2.95;;
27632;SDS011;15046;50.930;13.334;2023-05-18T00:34:03;6.70;;;2.70;;
27632;SDS011;15046;50.930;13.334;2023-05-18T00:36:32;17.02;;;4.32;;
27632;SDS011;15046;50.930;13.334;2023-05-18T00:38:58;12.55;;;3.58;;
27632;SDS011;15046;50.930;13.334;2023-05-18T00:41:25;9.07;;;3.13;;
27632;SDS011;15046;50.930;13.334;2023-05-18T00:43:51;10.05;;;2.78;;
27632;SDS011;15046;50.930;13.334;2023-05-18T00:46:18;7.97;;;3.00;;
27632;SDS011;15046;50.930;13.334;2023-05-18T00:48:44;9.18;;;2.80;;
27632;SDS011;15046;50.930;13.334;2023-05-18T00:51:10;12.75;;;3.60;;
27632;SDS011;15046;50.930;13.334;2023-05-18T00:53:36;9.80;;;2.72;;
27632;SDS011;15046;50.930;13.334;2023-05-18T00:56:03;9.25;;;2.95;;
27632;SDS011;15046;50.930;13.334;2023-05-18T00:58:29;7.63;;;3.00;;
27632;SDS011;15046;50.930;13.334;2023-05-18T01:00:58;7.93;;;3.07;;
27632;SDS011;15046;50.930;13.334;2023-05-18T01:03:26;12.60;;;3.20;;
27632;SDS011;15046;50.930;13.334;2023-05-18T01:05:54;9.35;;;2.35;;
27632;SDS011;15046;50.930;13.334;2023-05-18T01:08:23;11.80;;;3.30;;
27632;SDS011;15046;50.930;13.334;2023-05-18T01:10:55;8.50;;;2.70;;
27632;SDS011;15046;50.930;13.334;2023-05-18T01:13:40;10.57;;;3.13;;
27632;SDS011;15046;50.930;13.334;2023-05-18T01:16:29;9.32;;;2.75;;
27632;SDS011;15046;50.930;13.334;2023-05-18T01:21:48;10.17;;;2.90;;
27632;SDS011;15046;50.930;13.334;2023-05-18T01:27:13;8.15;;;2.90;;
27632;SDS011;15046;50.930;13.334;2023-05-18T01:29:41;9.95;;;3.10;;
27632;SDS011;15046;50.930;13.334;2023-05-18T01:32:18;11.25;;;4.32;;
27632;SDS011;15046;50.930;13.334;2023-05-18T01:34:45;8.85;;;2.72;;
27632;SDS011;15046;50.930;13.334;2023-05-18T01:37:12;8.55;;;3.05;;
27632;SDS011;15046;50.930;13.334;2023-05-18T01:39:38;9.90;;;3.42;;
27632;SDS011;15046;50.930;13.334;2023-05-18T01:42:12;11.10;;;3.10;;
27632;SDS011;15046;50.930;13.334;2023-05-18T01:44:49;11.05;;;3.33;;
27632;SDS011;15046;50.930;13.334;2023-05-18T01:47:18;12.23;;;3.13;;
27632;SDS011;15046;50.930;13.334;2023-05-18T01:49:45;8.70;;;2.85;;
27632;SDS011;15046;50.930;13.334;2023-05-18T01:52:15;9.02;;;3.45;;
27632;SDS011;15046;50.930;13.334;2023-05-18T01:54:44;12.00;;;3.38;;
27632;SDS011;15046;50.930;13.334;2023-05-18T01:57:16;8.07;;;2.95;;
27632;SDS011;15046;50.930;13.334;2023-05-18T01:59:44;10.70;;;3.90;;
27632;SDS011;15046;50.930;13.334;2023-05-18T02:02:11;8.88;;;2.90;;
27632;SDS011;15046;50.930;13.334;2023-05-18T02:04:37;9.90;;;3.17;;
27632;SDS011;15046;50.930;13.334;2023-05-18T02:07:03;9.55;;;2.88;;
27632;SDS011;15046;50.930;13.334;2023-05-18T02:09:29;14.93;;;3.97;;
27632;SDS011;15046;50.930;13.334;2023-05-18T02:11:55;10.55;;;3.03;;
27632;SDS011;15046;50.930;13.334;2023-05-18T02:14:21;7.97;;;3.00;;
27632;SDS011;15046;50.930;13.334;2023-05-18T02:16:47;9.85;;;2.63;;
27632;SDS011;15046;50.930;13.334;2023-05-18T02:19:17;8.93;;;2.78;;
27632;SDS011;15046;50.930;13.334;2023-05-18T02:21:43;11.77;;;3.05;;
27632;SDS011;15046;50.930;13.334;2023-05-18T02:24:09;11.15;;;3.00;;
27632;SDS011;15046;50.930;13.334;2023-05-18T02:26:36;9.68;;;2.90;;
27632;SDS011;15046;50.930;13.334;2023-05-18T02:29:03;13.65;;;4.35;;
27632;SDS011;15046;50.930;13.334;2023-05-18T02:31:35;11.40;;;4.78;;
27632;SDS011;15046;50.930;13.334;2023-05-18T02:34:02;10.90;;;2.83;;
27632;SDS011;15046;50.930;13.334;2023-05-18T02:36:28;7.63;;;2.67;;
27632;SDS011;15046;50.930;13.334;2023-05-18T02:39:01;11.15;;;3.42;;
27632;SDS011;15046;50.930;13.334;2023-05-18T02:41:28;12.32;;;3.15;;
27632;SDS011;15046;50.930;13.334;2023-05-18T02:43:55;7.55;;;2.90;;
27632;SDS011;15046;50.930;13.334;2023-05-18T02:46:20;10.32;;;3.95;;
27632;SDS011;15046;50.930;13.334;2023-05-18T02:48:46;13.68;;;4.03;;
27632;SDS011;15046;50.930;13.334;2023-05-18T02:51:12;9.93;;;3.10;;
27632;SDS011;15046;50.930;13.334;2023-05-18T02:53:38;8.07;;;2.83;;
27632;SDS011;15046;50.930;13.334;2023-05-18T02:56:04;6.30;;;2.85;;
27632;SDS011;15046;50.930;13.334;2023-05-18T02:58:30;7.97;;;3.22;;
27632;SDS011;15046;50.930;13.334;2023-05-18T03:00:57;8.43;;;2.80;;
27632;SDS011;15046;50.930;13.334;2023-05-18T03:03:24;8.35;;;2.67;;
27632;SDS011;15046;50.930;13.334;2023-05-18T03:05:50;12.70;;;3.35;;
27632;SDS011;15046;50.930;13.334;2023-05-18T03:08:19;12.37;;;3.60;;
27632;SDS011;15046;50.930;13.334;2023-05-18T03:10:46;8.02;;;3.67;;
27632;SDS011;15046;50.930;13.334;2023-05-18T03:13:13;7.30;;;3.20;;
27632;SDS011;15046;50.930;13.334;2023-05-18T03:15:39;12.18;;;2.85;;
27632;SDS011;15046;50.930;13.334;2023-05-18T03:18:04;9.13;;;3.88;;
27632;SDS011;15046;50.930;13.334;2023-05-18T03:20:30;11.23;;;3.10;;
27632;SDS011;15046;50.930;13.334;2023-05-18T03:22:56;7.30;;;2.90;;
27632;SDS011;15046;50.930;13.334;2023-05-18T03:25:23;11.38;;;3.22;;
27632;SDS011;15046;50.930;13.334;2023-05-18T03:27:52;14.50;;;3.80;;
27632;SDS011;15046;50.930;13.334;2023-05-18T03:30:18;9.35;;;3.40;;
27632;SDS011;15046;50.930;13.334;2023-05-18T03:32:47;11.68;;;3.53;;
27632;SDS011;15046;50.930;13.334;2023-05-18T03:35:13;5.30;;;2.80;;
27632;SDS011;15046;50.930;13.334;2023-05-18T03:37:39;6.65;;;3.17;;
27632;SDS011;15046;50.930;13.334;2023-05-18T03:40:14;10.05;;;3.40;;
27632;SDS011;15046;50.930;13.334;2023-05-18T03:42:40;8.10;;;3.60;;
27632;SDS011;15046;50.930;13.334;2023-05-18T03:45:07;8.90;;;3.45;;
27632;SDS011;15046;50.930;13.334;2023-05-18T03:47:34;13.80;;;3.67;;
27632;SDS011;15046;50.930;13.334;2023-05-18T03:50:00;10.50;;;3.50;;
27632;SDS011;15046;50.930;13.334;2023-05-18T03:52:26;5.75;;;2.55;;
27632;SDS011;15046;50.930;13.334;2023-05-18T03:54:54;9.18;;;3.33;;
27632;SDS011;15046;50.930;13.334;2023-05-18T03:57:20;8.80;;;2.88;;
27632;SDS011;15046;50.930;13.334;2023-05-18T03:59:46;10.77;;;3.42;;
27632;SDS011;15046;50.930;13.334;2023-05-18T04:02:12;10.90;;;2.45;;
27632;SDS011;15046;50.930;13.334;2023-05-18T04:04:40;8.98;;;3.42;;
27632;SDS011;15046;50.930;13.334;2023-05-18T04:07:09;14.95;;;3.83;;
27632;SDS011;15046;50.930;13.334;2023-05-18T04:09:35;7.03;;;2.30;;
27632;SDS011;15046;50.930;13.334;2023-05-18T04:12:03;8.98;;;3.22;;
27632;SDS011;15046;50.930;13.334;2023-05-18T04:14:29;7.57;;;2.88;;
27632;SDS011;15046;50.930;13.334;2023-05-18T04:16:57;13.70;;;3.10;;
27632;SDS011;15046;50.930;13.334;2023-05-18T04:19:29;7.68;;;2.72;;
27632;SDS011;15046;50.930;13.334;2023-05-18T04:21:56;6.93;;;3.33;;
27632;SDS011;15046;50.930;13.334;2023-05-18T04:24:22;9.57;;;3.15;;
27632;SDS011;15046;50.930;13.334;2023-05-18T04:26:50;9.68;;;3.38;;
27632;SDS011;15046;50.930;13.334;2023-05-18T04:29:16;10.13;;;3.90;;
27632;SDS011;15046;50.930;13.334;2023-05-18T04:31:42;12.98;;;3.55;;
27632;SDS011;15046;50.930;13.334;2023-05-18T04:34:11;7.43;;;4.07;;
27632;SDS011;15046;50.930;13.334;2023-05-18T04:36:37;9.88;;;5.10;;
27632;SDS011;15046;50.930;13.334;2023-05-18T04:39:06;14.20;;;6.18;;
27632;SDS011;15046;50.930;13.334;2023-05-18T04:41:33;9.27;;;4.72;;
27632;SDS011;15046;50.930;13.334;2023-05-18T04:43:59;10.43;;;5.07;;
27632;SDS011;15046;50.930;13.334;2023-05-18T04:46:26;9.68;;;4.72;;
27632;SDS011;15046;50.930;13.334;2023-05-18T04:48:52;10.15;;;5.80;;
27632;SDS011;15046;50.930;13.334;2023-05-18T04:51:22;16.33;;;6.53;;
27632;SDS011;15046;50.930;13.334;2023-05-18T04:53:51;16.23;;;8.15;;
27632;SDS011;15046;50.930;13.334;2023-05-18T04:56:18;14.35;;;6.78;;
27632;SDS011;15046;50.930;13.334;2023-05-18T04:58:47;14.55;;;6.75;;
27632;SDS011;15046;50.930;13.334;2023-05-18T05:01:13;15.27;;;6.55;;
27632;SDS011;15046;50.930;13.334;2023-05-18T05:03:43;9.75;;;4.07;;
27632;SDS011;15046;50.930;13.334;2023-05-18T05:06:09;21.07;;;6.87;;
27632;SDS011;15046;50.930;13.334;2023-05-18T05:08:36;15.00;;;5.40;;
27632;SDS011;15046;50.930;13.334;2023-05-18T05:11:02;11.40;;;5.47;;
27632;SDS011;15046;50.930;13.334;2023-05-18T05:13:28;14.95;;;4.97;;
27632;SDS011;15046;50.930;13.334;2023-05-18T05:15:54;9.05;;;3.47;;
27632;SDS011;15046;50.930;13.334;2023-05-18T05:18:20;14.38;;;4.25;;
27632;SDS011;15046;50.930;13.334;2023-05-18T05:20:46;11.20;;;3.33;;
27632;SDS011;15046;50.930;13.334;2023-05-18T05:23:14;9.13;;;3.38;;
27632;SDS011;15046;50.930;13.334;2023-05-18T05:25:39;10.55;;;3.45;;
27632;SDS011;15046;50.930;13.334;2023-05-18T05:28:05;8.68;;;3.42;;
27632;SDS011;15046;50.930;13.334;2023-05-18T05:30:31;12.13;;;2.78;;
27632;SDS011;15046;50.930;13.334;2023-05-18T05:32:57;12.43;;;3.30;;
27632;SDS011;15046;50.930;13.334;2023-05-18T05:35:23;15.27;;;3.65;;
27632;SDS011;15046;50.930;13.334;2023-05-18T05:37:49;11.25;;;4.10;;
27632;SDS011;15046;50.930;13.334;2023-05-18T05:40:15;8.45;;;3.67;;
27632;SDS011;15046;50.930;13.334;2023-05-18T05:42:40;15.23;;;4.10;;
27632;SDS011;15046;50.930;13.334;2023-05-18T05:45:08;11.07;;;3.85;;
27632;SDS011;15046;50.930;13.334;2023-05-18T05:47:34;10.80;;;3.15;;
27632;SDS011;15046;50.930;13.334;2023-05-18T05:50:00;8.55;;;3.42;;
27632;SDS011;15046;50.930;13.334;2023-05-18T05:52:26;12.40;;;4.07;;
27632;SDS011;15046;50.930;13.334;2023-05-18T05:54:53;11.60;;;3.17;;
27632;SDS011;15046;50.930;13.334;2023-05-18T05:57:19;10.43;;;3.45;;
27632;SDS011;15046;50.930;13.334;2023-05-18T05:59:45;10.23;;;3.80;;
27632;SDS011;15046;50.930;13.334;2023-05-18T06:02:11;14.55;;;3.55;;
27632;SDS011;15046;50.930;13.334;2023-05-18T06:04:38;7.97;;;3.40;;
27632;SDS011;15046;50.930;13.334;2023-05-18T06:07:04;7.18;;;2.75;;
27632;SDS011;15046;50.930;13.334;2023-05-18T06:09:30;10.95;;;2.95;;
27632;SDS011;15046;50.930;13.334;2023-05-18T06:11:56;10.05;;;2.83;;
27632;SDS011;15046;50.930;13.334;2023-05-18T06:14:22;10.77;;;2.97;;
27632;SDS011;15046;50.930;13.334;2023-05-18T06:16:48;11.95;;;3.25;;
27632;SDS011;15046;50.930;13.334;2023-05-18T06:19:14;9.63;;;2.85;;
27632;SDS011;15046;50.930;13.334;2023-05-18T06:21:40;10.73;;;3.10;;
27632;SDS011;15046;50.930;13.334;2023-05-18T06:24:06;10.30;;;3.25;;
27632;SDS011;15046;50.930;13.334;2023-05-18T06:26:32;11.55;;;3.55;;
27632;SDS011;15046;50.930;13.334;2023-05-18T06:28:58;10.10;;;2.95;;
27632;SDS011;15046;50.930;13.334;2023-05-18T06:31:24;11.50;;;2.97;;
27632;SDS011;15046;50.930;13.334;2023-05-18T06:33:49;9.85;;;2.80;;
27632;SDS011;15046;50.930;13.334;2023-05-18T06:36:15;11.50;;;3.30;;
27632;SDS011;15046;50.930;13.334;2023-05-18T06:38:41;6.80;;;3.08;;
27632;SDS011;15046;50.930;13.334;2023-05-18T06:41:07;9.10;;;2.90;;
27632;SDS011;15046;50.930;13.334;2023-05-18T06:43:35;6.38;;;2.55;;
27632;SDS011;15046;50.930;13.334;2023-05-18T06:46:01;9.68;;;2.60;;
27632;SDS011;15046;50.930;13.334;2023-05-18T06:48:27;8.10;;;2.92;;
27632;SDS011;15046;50.930;13.334;2023-05-18T06:50:53;10.82;;;3.15;;
27632;SDS011;15046;50.930;13.334;2023-05-18T06:53:20;5.90;;;2.33;;
27632;SDS011;15046;50.930;13.334;2023-05-18T06:55:47;5.88;;;2.50;;
27632;SDS011;15046;50.930;13.334;2023-05-18T06:58:14;6.35;;;2.28;;
27632;SDS011;15046;50.930;13.334;2023-05-18T07:00:39;10.35;;;2.33;;
27632;SDS011;15046;50.930;13.334;2023-05-18T07:03:05;16.45;;;2.35;;
27632;SDS011;15046;50.930;13.334;2023-05-18T07:05:32;10.07;;;2.33;;
27632;SDS011;15046;50.930;13.334;2023-05-18T07:07:59;8.55;;;2.20;;
27632;SDS011;15046;50.930;13.334;2023-05-18T07:10:25;8.27;;;2.20;;
27632;SDS011;15046;50.930;13.334;2023-05-18T07:12:52;10.48;;;2.70;;
27632;SDS011;15046;50.930;13.334;2023-05-18T07:15:19;7.93;;;1.95;;
27632;SDS011;15046;50.930;13.334;2023-05-18T07:17:45;8.95;;;1.65;;
27632;SDS011;15046;50.930;13.334;2023-05-18T07:20:10;9.27;;;2.08;;
27632;SDS011;15046;50.930;13.334;2023-05-18T07:22:36;6.53;;;1.60;;
27632;SDS011;15046;50.930;13.334;2023-05-18T07:25:02;10.13;;;2.40;;
27632;SDS011;15046;50.930;13.334;2023-05-18T07:27:28;8.13;;;1.63;;
27632;SDS011;15046;50.930;13.334;2023-05-18T07:29:54;8.63;;;1.85;;
27632;SDS011;15046;50.930;13.334;2023-05-18T07:32:20;7.50;;;2.08;;
27632;SDS011;15046;50.930;13.334;2023-05-18T07:34:46;9.52;;;2.28;;
27632;SDS011;15046;50.930;13.334;2023-05-18T07:37:12;7.60;;;2.30;;
27632;SDS011;15046;50.930;13.334;2023-05-18T07:39:38;9.25;;;1.75;;
27632;SDS011;15046;50.930;13.334;2023-05-18T07:42:04;8.80;;;2.42;;
27632;SDS011;15046;50.930;13.334;2023-05-18T07:44:30;10.63;;;2.42;;
27632;SDS011;15046;50.930;13.334;2023-05-18T07:46:56;9.13;;;2.17;;
27632;SDS011;15046;50.930;13.334;2023-05-18T07:49:22;8.52;;;1.85;;
27632;SDS011;15046;50.930;13.334;2023-05-18T07:51:49;9.27;;;2.35;;
27632;SDS011;15046;50.930;13.334;2023-05-18T07:54:15;8.38;;;2.40;;
27632;SDS011;15046;50.930;13.334;2023-05-18T07:56:41;7.03;;;2.60;;
27632;SDS011;15046;50.930;13.334;2023-05-18T07:59:08;6.05;;;1.90;;
27632;SDS011;15046;50.930;13.334;2023-05-18T08:01:35;8.35;;;2.17;;
27632;SDS011;15046;50.930;13.334;2023-05-18T08:04:02;11.38;;;1.98;;
27632;SDS011;15046;50.930;13.334;2023-05-18T08:06:29;7.82;;;2.70;;
27632;SDS011;15046;50.930;13.334;2023-05-18T08:08:55;6.63;;;1.88;;
27632;SDS011;15046;50.930;13.334;2023-05-18T08:11:24;6.35;;;1.90;;
27632;SDS011;15046;50.930;13.334;2023-05-18T08:13:51;8.05;;;1.90;;
27632;SDS011;15046;50.930;13.334;2023-05-18T08:16:17;10.77;;;2.30;;
27632;SDS011;15046;50.930;13.334;2023-05-18T08:18:43;6.75;;;1.88;;
27632;SDS011;15046;50.930;13.334;2023-05-18T08:21:09;15.57;;;2.28;;
27632;SDS011;15046;50.930;13.334;2023-05-18T08:23:35;6.78;;;1.75;;
27632;SDS011;15046;50.930;13.334;2023-05-18T08:26:02;7.70;;;2.25;;
27632;SDS011;15046;50.930;13.334;2023-05-18T08:28:28;8.88;;;2.28;;
27632;SDS011;15046;50.930;13.334;2023-05-18T08:30:54;7.03;;;1.90;;
27632;SDS011;15046;50.930;13.334;2023-05-18T08:33:20;5.88;;;1.65;;
27632;SDS011;15046;50.930;13.334;2023-05-18T08:35:47;6.65;;;2.38;;
27632;SDS011;15046;50.930;13.334;2023-05-18T08:38:16;7.32;;;2.03;;
27632;SDS011;15046;50.930;13.334;2023-05-18T08:40:49;10.70;;;2.38;;
27632;SDS011;15046;50.930;13.334;2023-05-18T08:43:24;8.00;;;2.63;;
27632;SDS011;15046;50.930;13.334;2023-05-18T08:46:04;10.20;;;2.47;;
27632;SDS011;15046;50.930;13.334;2023-05-18T08:48:37;9.80;;;2.72;;
27632;SDS011;15046;50.930;13.334;2023-05-18T08:51:05;9.30;;;1.85;;
27632;SDS011;15046;50.930;13.334;2023-05-18T08:53:33;7.43;;;1.85;;
27632;SDS011;15046;50.930;13.334;2023-05-18T08:56:02;9.02;;;1.80;;
27632;SDS011;15046;50.930;13.334;2023-05-18T08:58:33;7.38;;;1.70;;
27632;SDS011;15046;50.930;13.334;2023-05-18T09:01:02;6.85;;;1.92;;
27632;SDS011;15046;50.930;13.334;2023-05-18T09:03:29;8.82;;;1.67;;
27632;SDS011;15046;50.930;13.334;2023-05-18T09:05:55;8.23;;;2.33;;
27632;SDS011;15046;50.930;13.334;2023-05-18T09:08:23;6.70;;;2.08;;
27632;SDS011;15046;50.930;13.334;2023-05-18T09:10:50;8.13;;;2.53;;
27632;SDS011;15046;50.930;13.334;2023-05-18T09:13:17;6.53;;;1.75;;
27632;SDS011;15046;50.930;13.334;2023-05-18T09:15:45;11.20;;;1.90;;
27632;SDS011;15046;50.930;13.334;2023-05-18T09:18:11;6.28;;;2.00;;
27632;SDS011;15046;50.930;13.334;2023-05-18T09:20:40;8.75;;;2.47;;
27632;SDS011;15046;50.930;13.334;2023-05-18T09:23:06;7.60;;;1.60;;
27632;SDS011;15046;50.930;13.334;2023-05-18T09:25:32;7.60;;;1.60;;
27632;SDS011;15046;50.930;13.334;2023-05-18T09:28:01;6.15;;;2.30;;
27632;SDS011;15046;50.930;13.334;2023-05-18T09:30:28;6.97;;;1.75;;
27632;SDS011;15046;50.930;13.334;2023-05-18T09:32:54;8.43;;;2.13;;
27632;SDS011;15046;50.930;13.334;2023-05-18T09:35:20;8.35;;;1.98;;
27632;SDS011;15046;50.930;13.334;2023-05-18T09:37:49;8.85;;;2.10;;
27632;SDS011;15046;50.930;13.334;2023-05-18T09:40:17;6.57;;;1.85;;
27632;SDS011;15046;50.930;13.334;2023-05-18T09:42:44;7.18;;;1.85;;
27632;SDS011;15046;50.930;13.334;2023-05-18T09:45:20;7.15;;;2.08;;
27632;SDS011;15046;50.930;13.334;2023-05-18T09:47:52;6.07;;;2.00;;
27632;SDS011;15046;50.930;13.334;2023-05-18T09:50:19;8.73;;;1.83;;
27632;SDS011;15046;50.930;13.334;2023-05-18T09:52:46;10.63;;;2.72;;
27632;SDS011;15046;50.930;13.334;2023-05-18T09:55:19;6.07;;;1.77;;
27632;SDS011;15046;50.930;13.334;2023-05-18T09:57:45;9.80;;;2.03;;
27632;SDS011;15046;50.930;13.334;2023-05-18T10:00:13;6.35;;;1.60;;
27632;SDS011;15046;50.930;13.334;2023-05-18T10:02:41;9.05;;;2.63;;
27632;SDS011;15046;50.930;13.334;2023-05-18T10:05:22;10.10;;;1.90;;
27632;SDS011;15046;50.930;13.334;2023-05-18T10:07:58;6.28;;;2.20;;
27632;SDS011;15046;50.930;13.334;2023-05-18T10:10:27;6.28;;;2.08;;
27632;SDS011;15046;50.930;13.334;2023-05-18T10:12:54;8.25;;;2.08;;
27632;SDS011;15046;50.930;13.334;2023-05-18T10:15:22;8.40;;;2.47;;
27632;SDS011;15046;50.930;13.334;2023-05-18T10:17:50;8.95;;;2.22;;
27632;SDS011;15046;50.930;13.334;2023-05-18T10:20:20;5.32;;;1.85;;
27632;SDS011;15046;50.930;13.334;2023-05-18T10:22:48;8.30;;;1.97;;
27632;SDS011;15046;50.930;13.334;2023-05-18T10:25:19;6.90;;;2.35;;
27632;SDS011;15046;50.930;13.334;2023-05-18T10:27:51;8.23;;;2.10;;
27632;SDS011;15046;50.930;13.334;2023-05-18T10:30:21;9.55;;;2.47;;
27632;SDS011;15046;50.930;13.334;2023-05-18T10:32:47;7.38;;;2.13;;
27632;SDS011;15046;50.930;13.334;2023-05-18T10:35:13;7.90;;;1.85;;
27632;SDS011;15046;50.930;13.334;2023-05-18T10:37:42;9.10;;;1.67;;
27632;SDS011;15046;50.930;13.334;2023-05-18T10:40:14;8.98;;;1.95;;
27632;SDS011;15046;50.930;13.334;2023-05-18T10:42:42;4.95;;;1.65;;
27632;SDS011;15046;50.930;13.334;2023-05-18T10:45:10;8.75;;;2.47;;
27632;SDS011;15046;50.930;13.334;2023-05-18T10:47:36;5.13;;;1.98;;
27632;SDS011;15046;50.930;13.334;2023-05-18T10:50:04;8.07;;;2.15;;
27632;SDS011;15046;50.930;13.334;2023-05-18T10:52:31;14.70;;;2.08;;
27632;SDS011;15046;50.930;13.334;2023-05-18T10:54:58;6.22;;;1.90;;
27632;SDS011;15046;50.930;13.334;2023-05-18T10:57:25;7.32;;;1.85;;
27632;SDS011;15046;50.930;13.334;2023-05-18T10:59:59;7.25;;;2.13;;
27632;SDS011;15046;50.930;13.334;2023-05-18T11:04:55;8.00;;;1.88;;
27632;SDS011;15046;50.930;13.334;2023-05-18T11:07:22;5.78;;;1.92;;
27632;SDS011;15046;50.930;13.334;2023-05-18T11:09:49;7.40;;;1.75;;
27632;SDS011;15046;50.930;13.334;2023-05-18T11:12:16;6.93;;;2.08;;
27632;SDS011;15046;50.930;13.334;2023-05-18T11:22:47;4.68;;;1.52;;
27632;SDS011;15046;50.930;13.334;2023-05-18T11:28:01;6.97;;;1.95;;
27632;SDS011;15046;50.930;13.334;2023-05-18T11:33:10;6.15;;;1.55;;
27632;SDS011;15046;50.930;13.334;2023-05-18T11:41:27;3.97;;;1.30;;
27632;SDS011;15046;50.930;13.334;2023-05-18T11:44:14;6.97;;;1.77;;
27632;SDS011;15046;50.930;13.334;2023-05-18T11:46:54;5.80;;;1.65;;
27632;SDS011;15046;50.930;13.334;2023-05-18T11:49:25;7.45;;;2.17;;
27632;SDS011;15046;50.930;13.334;2023-05-18T11:54:51;7.57;;;1.70;;
27632;SDS011;15046;50.930;13.334;2023-05-18T11:57:19;6.88;;;1.83;;
27632;SDS011;15046;50.930;13.334;2023-05-18T11:59:49;4.50;;;1.20;;
27632;SDS011;15046;50.930;13.334;2023-05-18T12:02:26;5.95;;;1.70;;
27632;SDS011;15046;50.930;13.334;2023-05-18T12:04:56;9.50;;;1.75;;
27632;SDS011;15046;50.930;13.334;2023-05-18T12:07:26;5.05;;;1.33;;
27632;SDS011;15046;50.930;13.334;2023-05-18T12:10:06;7.22;;;1.75;;
27632;SDS011;15046;50.930;13.334;2023-05-18T12:12:36;6.35;;;1.70;;
27632;SDS011;15046;50.930;13.334;2023-05-18T12:15:04;4.40;;;1.33;;
27632;SDS011;15046;50.930;13.334;2023-05-18T12:17:37;6.40;;;1.52;;
27632;SDS011;15046;50.930;13.334;2023-05-18T12:20:10;5.05;;;1.50;;
27632;SDS011;15046;50.930;13.334;2023-05-18T12:22:49;4.63;;;1.20;;
27632;SDS011;15046;50.930;13.334;2023-05-18T12:25:17;4.65;;;1.10;;
27632;SDS011;15046;50.930;13.334;2023-05-18T12:27:45;5.80;;;1.60;;
27632;SDS011;15046;50.930;13.334;2023-05-18T12:32:43;4.78;;;1.27;;
27632;SDS011;15046;50.930;13.334;2023-05-18T12:35:13;5.55;;;1.55;;
27632;SDS011;15046;50.930;13.334;2023-05-18T12:37:42;6.10;;;1.70;;
27632;SDS011;15046;50.930;13.334;2023-05-18T12:40:09;7.20;;;1.35;;
27632;SDS011;15046;50.930;13.334;2023-05-18T12:42:39;5.70;;;1.52;;
27632;SDS011;15046;50.930;13.334;2023-05-18T12:45:16;4.65;;;1.55;;
27632;SDS011;15046;50.930;13.334;2023-05-18T12:47:42;4.30;;;1.27;;
27632;SDS011;15046;50.930;13.334;2023-05-18T12:50:08;5.45;;;1.48;;
27632;SDS011;15046;50.930;13.334;2023-05-18T12:52:35;6.05;;;1.98;;
27632;SDS011;15046;50.930;13.334;2023-05-18T12:55:01;5.18;;;1.60;;
27632;SDS011;15046;50.930;13.334;2023-05-18T12:57:28;6.10;;;1.95;;
27632;SDS011;15046;50.930;13.334;2023-05-18T12:59:59;7.40;;;1.98;;
27632;SDS011;15046;50.930;13.334;2023-05-18T13:02:29;7.07;;;1.50;;
27632;SDS011;15046;50.930;13.334;2023-05-18T13:05:00;6.68;;;1.88;;
27632;SDS011;15046;50.930;13.334;2023-05-18T13:07:40;6.85;;;2.40;;
27632;SDS011;15046;50.930;13.334;2023-05-18T13:10:11;6.55;;;1.60;;
27632;SDS011;15046;50.930;13.334;2023-05-18T13:12:46;5.18;;;1.48;;
27632;SDS011;15046;50.930;13.334;2023-05-18T13:15:14;6.07;;;1.40;;
27632;SDS011;15046;50.930;13.334;2023-05-18T13:17:47;7.38;;;1.85;;
27632;SDS011;15046;50.930;13.334;2023-05-18T13:20:42;7.63;;;1.52;;
27632;SDS011;15046;50.930;13.334;2023-05-18T13:23:13;8.00;;;2.00;;
27632;SDS011;15046;50.930;13.334;2023-05-18T13:25:40;5.63;;;1.58;;
27632;SDS011;15046;50.930;13.334;2023-05-18T13:28:07;8.13;;;2.05;;
27632;SDS011;15046;50.930;13.334;2023-05-18T13:30:34;6.75;;;1.58;;
27632;SDS011;15046;50.930;13.334;2023-05-18T13:33:01;12.65;;;1.98;;
27632;SDS011;15046;50.930;13.334;2023-05-18T13:35:27;6.60;;;1.70;;
27632;SDS011;15046;50.930;13.334;2023-05-18T13:37:53;6.18;;;1.48;;
27632;SDS011;15046;50.930;13.334;2023-05-18T13:40:20;7.57;;;1.52;;
27632;SDS011;15046;50.930;13.334;2023-05-18T13:45:15;4.20;;;1.25;;
27632;SDS011;15046;50.930;13.334;2023-05-18T13:47:41;7.68;;;1.73;;
27632;SDS011;15046;50.930;13.334;2023-05-18T13:50:09;9.00;;;1.88;;
27632;SDS011;15046;50.930;13.334;2023-05-18T13:52:36;6.82;;;1.52;;
27632;SDS011;15046;50.930;13.334;2023-05-18T13:55:02;8.65;;;1.90;;
27632;SDS011;15046;50.930;13.334;2023-05-18T13:57:31;7.15;;;1.55;;
27632;SDS011;15046;50.930;13.334;2023-05-18T13:59:57;6.97;;;1.55;;
27632;SDS011;15046;50.930;13.334;2023-05-18T14:02:24;5.72;;;1.80;;
27632;SDS011;15046;50.930;13.334;2023-05-18T14:04:50;7.43;;;1.30;;
27632;SDS011;15046;50.930;13.334;2023-05-18T14:07:17;5.38;;;1.70;;
27632;SDS011;15046;50.930;13.334;2023-05-18T14:09:42;7.18;;;1.88;;
27632;SDS011;15046;50.930;13.334;2023-05-18T14:12:08;7.22;;;1.88;;
27632;SDS011;15046;50.930;13.334;2023-05-18T14:14:38;7.95;;;1.85;;
27632;SDS011;15046;50.930;13.334;2023-05-18T14:17:05;5.47;;;1.63;;
27632;SDS011;15046;50.930;13.334;2023-05-18T14:19:31;6.47;;;1.52;;
27632;SDS011;15046;50.930;13.334;2023-05-18T14:21:57;6.63;;;1.75;;
27632;SDS011;15046;50.930;13.334;2023-05-18T14:24:22;5.00;;;1.50;;
27632;SDS011;15046;50.930;13.334;2023-05-18T14:26:48;7.80;;;1.83;;
27632;SDS011;15046;50.930;13.334;2023-05-18T14:29:17;7.30;;;1.95;;
27632;SDS011;15046;50.930;13.334;2023-05-18T14:31:43;6.47;;;1.85;;
27632;SDS011;15046;50.930;13.334;2023-05-18T14:34:09;5.85;;;1.42;;
27632;SDS011;15046;50.930;13.334;2023-05-18T14:36:35;6.00;;;1.58;;
27632;SDS011;15046;50.930;13.334;2023-05-18T14:39:01;8.48;;;1.80;;
27632;SDS011;15046;50.930;13.334;2023-05-18T14:41:28;5.80;;;1.38;;
27632;SDS011;15046;50.930;13.334;2023-05-18T14:43:55;6.18;;;1.60;;
27632;SDS011;15046;50.930;13.334;2023-05-18T14:46:20;4.97;;;1.38;;
27632;SDS011;15046;50.930;13.334;2023-05-18T14:48:46;6.90;;;1.80;;
27632;SDS011;15046;50.930;13.334;2023-05-18T14:51:12;7.72;;;1.98;;
27632;SDS011;15046;50.930;13.334;2023-05-18T14:53:40;5.22;;;1.63;;
27632;SDS011;15046;50.930;13.334;2023-05-18T14:56:06;4.07;;;1.33;;
27632;SDS011;15046;50.930;13.334;2023-05-18T14:58:33;7.60;;;1.80;;
27632;SDS011;15046;50.930;13.334;2023-05-18T15:01:00;7.00;;;2.20;;
27632;SDS011;15046;50.930;13.334;2023-05-18T15:03:26;6.45;;;1.70;;
27632;SDS011;15046;50.930;13.334;2023-05-18T15:05:52;5.18;;;1.75;;
27632;SDS011;15046;50.930;13.334;2023-05-18T15:08:18;5.18;;;1.58;;
27632;SDS011;15046;50.930;13.334;2023-05-18T15:10:44;6.85;;;1.48;;